createdAt,value
2023-03-11T00:00:53.717Z,10.30
2023-03-11T00:03:23.297Z,10.30
2023-03-11T00:05:51.087Z,10.30
2023-03-11T00:08:20.314Z,10.40
2023-03-11T00:10:48.904Z,10.40
2023-03-11T00:13:16.985Z,10.30
2023-03-11T00:15:47.028Z,10.10
2023-03-11T00:18:14.217Z,10.00
2023-03-11T00:20:43.746Z,10.00
2023-03-11T00:23:13.420Z,10.00
2023-03-11T00:25:40.802Z,10.10
2023-03-11T00:28:07.817Z,10.10
2023-03-11T00:30:34.757Z,10.10
2023-03-11T00:33:01.759Z,10.20
2023-03-11T00:35:32.979Z,10.20
2023-03-11T00:38:02.837Z,10.30
2023-03-11T00:40:32.821Z,10.40
2023-03-11T00:43:00.815Z,10.40
2023-03-11T00:45:31.712Z,10.40
2023-03-11T00:47:59.053Z,10.50
2023-03-11T00:50:30.102Z,10.50
2023-03-11T00:52:57.960Z,10.50
2023-03-11T01:00:45.463Z,10.60
2023-03-11T01:03:12.658Z,10.60
2023-03-11T01:05:39.710Z,10.60
2023-03-11T01:08:06.967Z,10.60
2023-03-11T01:10:34.905Z,10.50
2023-03-11T01:13:02.308Z,10.50
2023-03-11T01:18:23.332Z,10.50
2023-03-11T01:20:51.302Z,10.60
2023-03-11T01:23:19.635Z,10.50
2023-03-11T01:25:46.986Z,10.50
2023-03-11T01:28:13.974Z,10.50
2023-03-11T01:30:42.598Z,10.50
2023-03-11T01:33:14.664Z,10.40
2023-03-11T01:35:42.426Z,10.50
2023-03-11T01:38:09.963Z,10.50
2023-03-11T01:40:46.370Z,10.50
2023-03-11T01:43:51.530Z,10.60
2023-03-11T01:46:27.257Z,10.60
2023-03-11T01:48:56.520Z,10.60
2023-03-11T01:51:38.555Z,10.60
2023-03-11T01:54:13.451Z,10.70
2023-03-11T01:56:42.708Z,10.70
2023-03-11T01:59:11.949Z,10.80
2023-03-11T02:01:50.634Z,10.90
2023-03-11T02:04:17.951Z,10.90
2023-03-11T02:06:45.466Z,10.90
2023-03-11T02:09:12.441Z,10.90
2023-03-11T02:11:39.580Z,10.80
2023-03-11T02:14:08.848Z,10.80
2023-03-11T02:16:36.594Z,10.80
2023-03-11T02:19:19.564Z,10.70
2023-03-11T02:21:47.192Z,10.60
2023-03-11T02:24:53.484Z,10.50
2023-03-11T02:27:22.315Z,10.60
2023-03-11T02:29:51.639Z,10.60
2023-03-11T02:32:19.426Z,10.60
2023-03-11T02:34:46.357Z,10.60
2023-03-11T02:37:16.558Z,10.70
2023-03-11T02:39:51.735Z,10.60
2023-03-11T02:42:33.140Z,10.60
2023-03-11T02:45:09.170Z,10.60
2023-03-11T02:47:37.682Z,10.60
2023-03-11T02:50:06.215Z,10.50
2023-03-11T02:52:35.043Z,10.50
2023-03-11T02:55:02.240Z,10.40
2023-03-11T02:57:29.151Z,10.40
2023-03-11T02:59:56.586Z,10.50
2023-03-11T03:02:23.527Z,10.50
2023-03-11T03:04:50.395Z,10.40
2023-03-11T03:07:17.320Z,10.20
2023-03-11T03:09:44.345Z,10.10
2023-03-11T03:12:11.760Z,10.10
2023-03-11T03:14:38.843Z,10.00
2023-03-11T03:17:06.129Z,10.10
2023-03-11T03:19:33.530Z,10.20
2023-03-11T03:22:00.373Z,10.20
2023-03-11T03:24:27.320Z,10.30
2023-03-11T03:26:54.343Z,10.30
2023-03-11T03:29:21.337Z,10.30
2023-03-11T03:31:48.297Z,10.20
2023-03-11T03:34:15.737Z,10.20
2023-03-11T03:36:43.121Z,10.10
2023-03-11T03:39:09.966Z,10.10
2023-03-11T03:44:12.991Z,9.90
2023-03-11T03:46:39.811Z,9.90
2023-03-11T03:49:06.812Z,9.80
2023-03-11T03:54:09.113Z,9.70
2023-03-11T03:56:36.386Z,9.70
2023-03-11T03:59:03.694Z,9.70
2023-03-11T04:01:30.580Z,9.70
2023-03-11T04:03:57.538Z,9.60
2023-03-11T04:06:26.792Z,9.60
2023-03-11T04:08:54.572Z,9.60
2023-03-11T04:11:21.950Z,9.50
2023-03-11T04:13:49.192Z,9.50
2023-03-11T04:16:19.268Z,9.50
2023-03-11T04:18:46.787Z,9.50
2023-03-11T04:21:14.014Z,9.40
2023-03-11T04:23:41.296Z,9.40
2023-03-11T04:26:08.158Z,9.40
2023-03-11T04:28:34.972Z,9.40
2023-03-11T04:31:02.413Z,9.40
2023-03-11T04:33:29.314Z,9.40
2023-03-11T04:35:56.224Z,9.50
2023-03-11T04:38:23.175Z,9.50
2023-03-11T04:40:50.051Z,9.40
2023-03-11T04:43:17.284Z,9.40
2023-03-11T04:45:44.487Z,9.40
2023-03-11T04:48:11.515Z,9.30
2023-03-11T04:50:38.298Z,9.20
2023-03-11T04:53:05.108Z,9.20
2023-03-11T04:55:33.363Z,9.20
2023-03-11T04:58:00.574Z,9.20
2023-03-11T05:00:30.498Z,9.20
2023-03-11T05:02:57.824Z,9.20
2023-03-11T05:05:24.897Z,9.20
2023-03-11T05:07:51.724Z,9.20
2023-03-11T05:10:24.924Z,9.30
2023-03-11T05:12:52.353Z,9.30
2023-03-11T05:15:20.421Z,9.40
2023-03-11T05:17:47.624Z,9.50
2023-03-11T05:20:15.835Z,9.50
2023-03-11T05:22:43.099Z,9.50
2023-03-11T05:25:10.329Z,9.30
2023-03-11T05:27:37.186Z,9.20
2023-03-11T05:30:05.046Z,9.10
2023-03-11T05:32:32.009Z,9.10
2023-03-11T05:34:58.972Z,9.10
2023-03-11T05:37:26.330Z,9.00
2023-03-11T05:39:53.661Z,9.10
2023-03-11T05:42:21.574Z,9.00
2023-03-11T05:44:48.876Z,9.00
2023-03-11T05:47:17.467Z,9.10
2023-03-11T05:49:44.343Z,9.20
2023-03-11T05:52:11.157Z,9.20
2023-03-11T05:54:38.132Z,9.30
2023-03-11T05:57:04.991Z,9.30
2023-03-11T05:59:32.689Z,9.50
2023-03-11T06:01:59.603Z,9.70
2023-03-11T06:04:26.769Z,9.80
2023-03-11T06:06:54.093Z,10.00
2023-03-11T06:09:20.878Z,10.20
2023-03-11T06:11:48.119Z,10.30
2023-03-11T06:14:15.888Z,10.40
2023-03-11T06:16:43.372Z,10.50
2023-03-11T06:19:10.779Z,10.50
2023-03-11T06:21:37.776Z,10.70
2023-03-11T06:24:05.521Z,10.80
2023-03-11T06:26:32.413Z,11.00
2023-03-11T06:28:59.194Z,11.10
2023-03-11T06:31:28.136Z,11.20
2023-03-11T06:33:56.080Z,11.20
2023-03-11T06:36:23.433Z,11.30
2023-03-11T06:38:53.162Z,11.30
2023-03-11T06:41:20.397Z,11.40
2023-03-11T06:43:47.626Z,11.60
2023-03-11T06:46:20.059Z,11.60
2023-03-11T06:48:47.321Z,11.70
2023-03-11T06:51:14.326Z,11.80
2023-03-11T06:53:41.345Z,11.90
2023-03-11T06:56:12.101Z,12.00
2023-03-11T06:58:41.397Z,12.10
2023-03-11T07:01:12.604Z,12.00
2023-03-11T07:03:39.919Z,12.00
2023-03-11T07:06:10.725Z,12.10
2023-03-11T07:08:37.534Z,12.10
2023-03-11T07:11:07.276Z,12.30
2023-03-11T07:13:34.691Z,12.40
2023-03-11T07:16:05.519Z,12.20
2023-03-11T07:18:33.182Z,12.20
2023-03-11T07:21:02.497Z,12.20
2023-03-11T07:23:30.315Z,12.30
2023-03-11T07:25:57.169Z,12.40
2023-03-11T07:28:25.396Z,12.50
2023-03-11T07:30:53.277Z,12.60
2023-03-11T07:33:21.304Z,12.70
2023-03-11T07:35:49.473Z,12.80
2023-03-11T07:38:18.012Z,12.80
2023-03-11T07:40:45.319Z,12.80
2023-03-11T07:43:12.120Z,12.90
2023-03-11T07:45:39.423Z,13.00
2023-03-11T07:48:06.838Z,13.10
2023-03-11T07:50:34.035Z,13.10
2023-03-11T07:53:01.308Z,13.10
2023-03-11T07:55:28.284Z,13.10
2023-03-11T07:57:55.639Z,13.10
2023-03-11T08:00:22.844Z,13.20
2023-03-11T08:02:49.684Z,13.20
2023-03-11T08:05:21.031Z,13.10
2023-03-11T08:07:47.919Z,12.90
2023-03-11T08:10:14.844Z,12.90
2023-03-11T08:12:41.834Z,12.90
2023-03-11T08:15:09.532Z,13.00
2023-03-11T08:17:36.346Z,12.70
2023-03-11T08:20:04.964Z,12.40
2023-03-11T08:22:32.284Z,12.30
2023-03-11T08:24:59.111Z,12.10
2023-03-11T08:27:29.034Z,12.00
2023-03-11T08:29:55.958Z,11.90
2023-03-11T08:32:22.940Z,11.90
2023-03-11T08:34:49.828Z,11.90
2023-03-11T08:37:17.165Z,11.90
2023-03-11T08:39:43.919Z,11.90
2023-03-11T08:42:11.571Z,11.90
2023-03-11T08:44:38.994Z,11.80
2023-03-11T08:47:06.084Z,11.80
2023-03-11T08:49:32.971Z,11.90
2023-03-11T08:51:59.817Z,12.00
2023-03-11T08:54:26.756Z,12.10
2023-03-11T08:56:53.820Z,12.30
2023-03-11T08:59:21.130Z,12.40
2023-03-11T09:01:48.333Z,12.50
2023-03-11T09:04:16.456Z,12.50
2023-03-11T09:06:44.441Z,12.30
2023-03-11T09:09:16.816Z,12.30
2023-03-11T09:11:44.115Z,12.30
2023-03-11T09:14:10.934Z,12.20
2023-03-11T09:16:38.306Z,12.20
2023-03-11T09:19:07.486Z,12.20
2023-03-11T09:21:35.648Z,12.30
2023-03-11T09:24:04.303Z,12.20
2023-03-11T09:26:31.899Z,12.20
2023-03-11T09:28:59.225Z,12.20
2023-03-11T09:31:26.150Z,12.20
2023-03-11T09:33:53.187Z,12.00
2023-03-11T09:36:21.689Z,11.40
2023-03-11T09:38:49.096Z,10.80
2023-03-11T09:41:25.328Z,10.50
2023-03-11T09:44:12.736Z,10.30
2023-03-11T09:47:23.680Z,10.00
2023-03-11T09:49:59.560Z,9.80
2023-03-11T09:52:35.607Z,9.60
2023-03-11T09:55:05.376Z,9.40
2023-03-11T09:57:37.619Z,9.50
2023-03-11T10:00:06.495Z,9.50
2023-03-11T10:02:37.695Z,9.40
2023-03-11T10:05:23.189Z,9.20
2023-03-11T10:08:04.087Z,9.30
2023-03-11T10:10:39.137Z,9.40
2023-03-11T10:13:20.181Z,9.20
2023-03-11T10:16:04.004Z,9.10
2023-03-11T10:18:40.123Z,9.00
2023-03-11T10:21:14.416Z,9.10
2023-03-11T10:24:07.236Z,9.10
2023-03-11T10:26:43.546Z,9.10
2023-03-11T10:29:35.190Z,9.20
2023-03-11T10:32:17.408Z,9.40
2023-03-11T10:34:51.036Z,9.50
2023-03-11T10:37:42.578Z,9.40
2023-03-11T10:40:36.390Z,9.40
2023-03-11T10:43:32.982Z,9.50
2023-03-11T10:46:00.719Z,9.50
2023-03-11T10:48:27.668Z,9.40
2023-03-11T10:51:01.840Z,9.40
2023-03-11T10:53:29.568Z,9.10
2023-03-11T10:55:58.274Z,9.20
2023-03-11T10:58:28.821Z,9.20
2023-03-11T11:01:01.684Z,9.30
2023-03-11T11:03:29.519Z,9.40
2023-03-11T11:06:05.316Z,9.40
2023-03-11T11:08:33.696Z,9.40
2023-03-11T11:11:02.862Z,9.30
2023-03-11T11:13:34.831Z,9.50
2023-03-11T11:16:18.684Z,9.40
2023-03-11T11:18:49.455Z,9.40
2023-03-11T11:21:34.618Z,9.40
2023-03-11T11:24:10.244Z,9.40
2023-03-11T11:26:37.556Z,9.30
2023-03-11T11:29:10.234Z,9.20
2023-03-11T11:31:45.464Z,9.10
2023-03-11T11:34:31.713Z,9.10
2023-03-11T11:37:04.463Z,8.90
2023-03-11T11:39:40.023Z,8.80
2023-03-11T11:42:10.952Z,8.70
2023-03-11T11:44:37.757Z,8.50
2023-03-11T11:47:16.357Z,8.50
2023-03-11T11:49:54.337Z,8.60
2023-03-11T11:52:25.943Z,8.70
2023-03-11T11:55:18.752Z,8.70
2023-03-11T11:57:45.658Z,8.70
2023-03-11T12:00:24.262Z,8.90
2023-03-11T12:03:10.394Z,8.90
2023-03-11T12:05:50.706Z,9.10
2023-03-11T12:08:20.125Z,9.20
2023-03-11T12:11:00.302Z,9.20
2023-03-11T12:13:50.589Z,9.00
2023-03-11T12:16:36.232Z,9.10
2023-03-11T12:19:16.752Z,9.10
2023-03-11T12:22:22.012Z,9.40
2023-03-11T12:25:13.153Z,9.40
2023-03-11T12:27:51.810Z,9.60
2023-03-11T12:30:23.243Z,9.50
2023-03-11T12:32:57.612Z,9.30
2023-03-11T12:35:34.024Z,9.10
2023-03-11T12:38:13.345Z,8.90
2023-03-11T12:41:01.380Z,8.50
2023-03-11T12:43:33.480Z,8.40
2023-03-11T12:46:01.544Z,8.50
2023-03-11T12:48:49.776Z,8.30
2023-03-11T12:51:34.695Z,8.10
2023-03-11T12:54:27.566Z,8.00
2023-03-11T12:57:01.336Z,7.90
2023-03-11T12:59:40.327Z,8.10
2023-03-11T13:02:10.650Z,8.30
2023-03-11T13:04:37.431Z,8.40
2023-03-11T13:07:36.555Z,8.50
2023-03-11T13:10:18.468Z,8.60
2023-03-11T13:12:51.309Z,8.50
2023-03-11T13:15:18.463Z,8.60
2023-03-11T13:18:12.540Z,8.60
2023-03-11T13:20:39.346Z,9.00
2023-03-11T13:23:24.420Z,9.00
2023-03-11T13:25:54.369Z,8.90
2023-03-11T13:28:51.967Z,9.00
2023-03-11T13:31:40.526Z,9.20
2023-03-11T13:34:16.935Z,9.30
2023-03-11T13:37:13.297Z,9.40
2023-03-11T13:40:01.739Z,9.50
2023-03-11T13:42:37.553Z,9.60
2023-03-11T13:45:12.801Z,9.60
2023-03-11T13:47:45.845Z,9.40
2023-03-11T13:50:26.988Z,9.50
2023-03-11T13:52:56.055Z,9.60
2023-03-11T13:55:34.692Z,9.70
2023-03-11T13:58:13.697Z,9.80
2023-03-11T14:00:49.615Z,10.00
2023-03-11T14:03:22.094Z,10.10
2023-03-11T14:05:58.715Z,10.10
2023-03-11T14:08:30.086Z,10.20
2023-03-11T14:11:02.588Z,10.20
2023-03-11T14:13:31.533Z,10.40
2023-03-11T14:16:08.162Z,10.30
2023-03-11T14:18:49.500Z,10.30
2023-03-11T14:21:22.069Z,10.20
2023-03-11T14:23:52.126Z,10.20
2023-03-11T14:26:27.733Z,10.20
2023-03-11T14:29:10.747Z,10.30
2023-03-11T14:31:44.078Z,10.30
2023-03-11T14:34:10.952Z,10.20
2023-03-11T14:36:44.299Z,10.30
2023-03-11T14:39:33.199Z,10.30
2023-03-11T14:42:26.656Z,10.50
2023-03-11T14:45:07.814Z,10.50
2023-03-11T14:48:05.282Z,10.50
2023-03-11T14:50:38.089Z,10.80
2023-03-11T14:53:10.472Z,11.00
2023-03-11T14:55:53.146Z,11.00
2023-03-11T14:58:23.970Z,11.00
2023-03-11T15:01:00.261Z,11.10
2023-03-11T15:03:31.733Z,11.10
2023-03-11T15:06:00.840Z,11.00
2023-03-11T15:08:30.545Z,10.80
2023-03-11T15:11:12.469Z,10.80
2023-03-11T15:13:41.751Z,10.80
2023-03-11T15:16:35.492Z,10.80
2023-03-11T15:19:34.571Z,10.80
2023-03-11T15:22:26.362Z,10.70
2023-03-11T15:24:56.008Z,10.70
2023-03-11T15:27:32.646Z,10.70
2023-03-11T15:30:01.847Z,10.70
2023-03-11T15:32:34.453Z,10.70
2023-03-11T15:35:07.409Z,10.60
2023-03-11T15:37:35.016Z,10.50
2023-03-11T15:40:44.940Z,10.50
2023-03-11T15:43:15.096Z,10.50
2023-03-11T15:45:42.697Z,10.40
2023-03-11T15:48:11.283Z,10.50
2023-03-11T15:50:53.810Z,10.40
2023-03-11T15:53:22.490Z,10.60
2023-03-11T15:55:49.553Z,10.70
2023-03-11T15:58:18.590Z,10.80
2023-03-11T16:00:57.131Z,10.80
2023-03-11T16:03:24.563Z,10.80
2023-03-11T16:05:51.804Z,10.70
2023-03-11T16:08:18.849Z,10.50
2023-03-11T16:10:47.352Z,10.60
2023-03-11T16:13:15.159Z,10.80
2023-03-11T16:15:43.275Z,10.80
2023-03-11T16:18:10.901Z,10.80
2023-03-11T16:20:47.805Z,10.80
2023-03-11T16:23:26.181Z,10.80
2023-03-11T16:32:18.301Z,10.60
2023-03-11T16:40:49.884Z,10.10
2023-03-11T16:43:16.916Z,10.00
2023-03-11T16:45:44.194Z,9.50
2023-03-11T16:48:11.129Z,9.70
2023-03-11T16:50:38.106Z,9.60
2023-03-11T16:53:05.543Z,9.50
2023-03-11T16:55:33.124Z,9.40
2023-03-11T16:58:00.491Z,9.40
2023-03-11T17:00:39.870Z,9.60
2023-03-11T17:03:07.229Z,9.70
2023-03-11T17:05:34.579Z,9.80
2023-03-11T17:08:04.184Z,9.80
2023-03-11T17:10:38.134Z,9.70
2023-03-11T17:13:06.737Z,9.50
2023-03-11T17:15:35.303Z,9.30
2023-03-11T17:18:02.753Z,9.20
2023-03-11T17:20:29.695Z,9.10
2023-03-11T17:22:56.564Z,9.00
2023-03-11T17:25:23.546Z,9.00
2023-03-11T17:27:50.871Z,8.50
2023-03-11T17:30:35.679Z,9.00
2023-03-11T17:33:04.083Z,9.10
2023-03-11T17:35:31.062Z,9.20
2023-03-11T17:37:58.393Z,9.20
2023-03-11T17:40:27.029Z,9.30
2023-03-11T17:42:54.841Z,9.30
2023-03-11T17:45:22.134Z,9.30
2023-03-11T17:47:49.086Z,9.30
2023-03-11T17:50:16.023Z,9.40
2023-03-11T17:52:42.914Z,9.40
2023-03-11T17:55:10.467Z,9.40
2023-03-11T17:57:44.972Z,9.40
2023-03-11T18:00:14.889Z,9.30
2023-03-11T18:02:42.586Z,9.40
2023-03-11T18:05:09.859Z,9.40
2023-03-11T18:07:39.285Z,9.30
2023-03-11T18:10:07.892Z,9.20
2023-03-11T18:12:34.852Z,9.20
2023-03-11T18:15:06.117Z,9.30
2023-03-11T18:17:35.216Z,9.30
2023-03-11T18:20:02.359Z,9.30
2023-03-11T18:22:29.230Z,9.30
2023-03-11T18:24:56.162Z,9.30
2023-03-11T18:27:24.560Z,9.20
2023-03-11T18:29:52.276Z,9.20
2023-03-11T18:32:20.940Z,9.20
2023-03-11T18:34:51.448Z,9.20
2023-03-11T18:37:18.464Z,9.20
2023-03-11T18:39:45.335Z,9.20
2023-03-11T18:42:14.073Z,9.20
2023-03-11T18:44:41.938Z,9.20
2023-03-11T18:47:08.970Z,9.20
2023-03-11T18:49:38.837Z,9.20
2023-03-11T18:52:06.125Z,9.30
2023-03-11T18:54:33.409Z,9.30
2023-03-11T18:57:00.264Z,9.40
2023-03-11T18:59:27.842Z,9.30
2023-03-11T19:01:55.104Z,9.30
2023-03-11T19:04:22.119Z,9.10
2023-03-11T19:06:50.243Z,9.00
2023-03-11T19:09:20.656Z,8.90
2023-03-11T19:11:48.913Z,8.80
2023-03-11T19:14:19.585Z,8.80
2023-03-11T19:16:46.471Z,8.70
2023-03-11T19:19:13.553Z,8.80
2023-03-11T19:21:40.893Z,8.70
2023-03-11T19:24:08.181Z,8.70
2023-03-11T19:26:44.713Z,8.60
2023-03-11T19:29:14.066Z,8.60
2023-03-11T19:31:41.525Z,8.60
2023-03-11T19:34:08.368Z,8.70
2023-03-11T19:36:36.677Z,8.70
2023-03-11T19:39:04.068Z,8.70
2023-03-11T19:41:33.678Z,8.60
2023-03-11T19:44:00.972Z,8.60
2023-03-11T19:46:29.458Z,8.60
2023-03-11T19:48:56.841Z,8.70
2023-03-11T19:51:26.605Z,8.80
2023-03-11T19:53:55.632Z,8.70
2023-03-11T19:56:22.485Z,8.70
2023-03-11T19:58:49.282Z,8.60
2023-03-11T20:01:20.657Z,8.60
2023-03-11T20:03:47.985Z,8.60
2023-03-11T20:06:18.358Z,8.70
2023-03-11T20:08:45.439Z,8.70
2023-03-11T20:11:12.595Z,8.70
2023-03-11T20:13:42.651Z,8.60
2023-03-11T20:16:18.777Z,8.60
2023-03-11T20:18:50.183Z,8.60
2023-03-11T20:21:17.283Z,8.50
2023-03-11T20:23:44.109Z,8.40
2023-03-11T20:26:14.315Z,8.40
2023-03-11T20:29:02.660Z,8.30
2023-03-11T20:31:32.637Z,8.30
2023-03-11T20:34:00.002Z,8.30
2023-03-11T20:36:30.560Z,8.30
2023-03-11T20:38:57.989Z,8.30
2023-03-11T20:41:26.605Z,8.30
2023-03-11T20:43:57.320Z,8.20
2023-03-11T20:46:25.022Z,8.30
2023-03-11T20:48:51.997Z,8.30
2023-03-11T20:51:20.555Z,8.30
2023-03-11T20:53:49.029Z,8.30
2023-03-11T20:56:19.673Z,8.20
2023-03-11T20:58:49.012Z,8.30
2023-03-11T21:01:19.070Z,8.20
2023-03-11T21:03:46.587Z,8.10
2023-03-11T21:06:16.427Z,8.00
2023-03-11T21:08:43.584Z,8.00
2023-03-11T21:11:10.919Z,7.90
2023-03-11T21:13:37.873Z,8.00
2023-03-11T21:16:06.002Z,7.90
2023-03-11T21:18:33.202Z,7.90
2023-03-11T21:21:00.801Z,8.00
2023-03-11T21:23:27.701Z,8.00
2023-03-11T21:25:59.220Z,8.00
2023-03-11T21:28:26.808Z,7.80
2023-03-11T21:31:00.176Z,7.80
2023-03-11T21:33:27.513Z,7.90
2023-03-11T21:35:56.017Z,7.90
2023-03-11T21:38:27.817Z,8.00
2023-03-11T21:41:03.754Z,8.00
2023-03-11T21:43:30.706Z,8.00
2023-03-11T21:45:57.750Z,8.00
2023-03-11T21:48:24.879Z,8.10
2023-03-11T21:50:52.720Z,8.10
2023-03-11T21:53:20.118Z,8.00
2023-03-11T21:55:47.601Z,8.00
2023-03-11T21:58:15.423Z,8.20
2023-03-11T22:00:43.201Z,7.70
2023-03-11T22:03:10.623Z,7.10
2023-03-11T22:05:37.903Z,7.00
2023-03-11T22:08:05.833Z,8.10
2023-03-11T22:10:33.130Z,8.20
2023-03-11T22:13:00.446Z,8.40
2023-03-11T22:15:30.693Z,8.40
2023-03-11T22:17:57.580Z,8.40
2023-03-11T22:20:24.603Z,8.40
2023-03-11T22:22:51.757Z,8.40
2023-03-11T22:25:18.708Z,8.50
2023-03-11T22:27:45.884Z,8.40
2023-03-11T22:30:13.221Z,8.50
2023-03-11T22:32:40.156Z,8.50
2023-03-11T22:35:07.346Z,8.50
2023-03-11T22:40:12.863Z,8.40
2023-03-11T22:42:39.849Z,8.40
2023-03-11T22:45:09.815Z,8.40
2023-03-11T23:15:00.188Z,8.00
2023-03-11T23:17:27.215Z,8.00
2023-03-11T23:19:54.060Z,8.10
2023-03-11T23:22:21.148Z,8.10
2023-03-11T23:33:04.157Z,8.00
2023-03-11T23:35:32.255Z,8.00
2023-03-11T23:38:00.924Z,8.00
2023-03-11T23:46:55.296Z,8.00
2023-03-11T23:49:22.883Z,8.00
2023-03-11T23:55:02.478Z,7.80
2023-03-11T23:57:29.408Z,7.80
2023-03-11T23:59:58.928Z,7.80
